Terminal Aerodrome Forecast
Issued by NWS Twin Cities, MN

Home | Current Version | Previous Version | Graphics & Text | Print | Product List | Glossary On
Versions: 1 2 3 4 5 6 7 8 9 10 11 12 13 14 15 16
000
FTUS43 KMPX 240520
TAFEAU
TAF
KEAU 240520Z 2406/2506 10009KT P6SM SCT025 OVC035
     FM240800 10007KT P6SM SCT012 OVC025
     FM241100 12008KT 6SM BR OVC008
     FM241600 12012KT P6SM SCT010 OVC020
     FM242000 13011KT P6SM SCT020 OVC035=

USA.gov is the U.S. government's official web portal to all federal, state and local government web resources and services.